Terminal Aerodrome Forecast
Issued by NWS

Current Version | Previous Version | Text Only | Print | Product List | Glossary Off
Versions: 1 2 3 4 5 6 7 8 9 10 11 12 13 14 15 16 17 18 19 20 21 22 23 24 25

000
FTUS41 KILN 171500 AAA
TAFLCK
TAF AMD
KLCK 171507Z 1715/1812 22012G22KT P6SM SCT025
     FM172300 25014KT P6SM OVC035
     FM180700 28012KT P6SM OVC014=

USA.gov is the U.S. government's official web portal to all federal, state and local government web resources and services.